sensor_id;sensor_type;location;lat;lon;timestamp;P1;durP1;ratioP1;P2;durP2;ratioP2
34832;SDS011;55941;50.800;4.342;2023-01-31T00:01:26;48.70;;;9.73;;
34832;SDS011;55941;50.800;4.342;2023-01-31T00:03:55;42.70;;;9.98;;
34832;SDS011;55941;50.800;4.342;2023-01-31T00:06:27;45.50;;;9.98;;
34832;SDS011;55941;50.800;4.342;2023-01-31T00:08:56;38.22;;;10.02;;
34832;SDS011;55941;50.800;4.342;2023-01-31T00:11:26;57.25;;;10.02;;
34832;SDS011;55941;50.800;4.342;2023-01-31T00:13:53;40.15;;;9.70;;
34832;SDS011;55941;50.800;4.342;2023-01-31T00:16:20;45.28;;;9.98;;
34832;SDS011;55941;50.800;4.342;2023-01-31T00:18:47;48.67;;;10.35;;
34832;SDS011;55941;50.800;4.342;2023-01-31T00:21:17;54.45;;;12.48;;
34832;SDS011;55941;50.800;4.342;2023-01-31T00:23:44;45.05;;;10.90;;
34832;SDS011;55941;50.800;4.342;2023-01-31T00:26:20;53.95;;;10.65;;
34832;SDS011;55941;50.800;4.342;2023-01-31T00:28:49;53.75;;;9.65;;
34832;SDS011;55941;50.800;4.342;2023-01-31T00:31:16;44.67;;;9.18;;
34832;SDS011;55941;50.800;4.342;2023-01-31T00:33:43;52.20;;;9.57;;
34832;SDS011;55941;50.800;4.342;2023-01-31T00:36:11;48.40;;;9.68;;
34832;SDS011;55941;50.800;4.342;2023-01-31T00:38:38;46.65;;;9.00;;
34832;SDS011;55941;50.800;4.342;2023-01-31T00:41:06;61.65;;;12.00;;
34832;SDS011;55941;50.800;4.342;2023-01-31T00:43:32;45.40;;;9.40;;
34832;SDS011;55941;50.800;4.342;2023-01-31T00:45:59;54.67;;;10.52;;
34832;SDS011;55941;50.800;4.342;2023-01-31T00:48:25;49.35;;;10.48;;
34832;SDS011;55941;50.800;4.342;2023-01-31T00:50:52;44.15;;;9.18;;
34832;SDS011;55941;50.800;4.342;2023-01-31T00:53:18;51.42;;;10.18;;
34832;SDS011;55941;50.800;4.342;2023-01-31T00:55:50;43.45;;;9.55;;
34832;SDS011;55941;50.800;4.342;2023-01-31T00:58:25;44.35;;;8.50;;
34832;SDS011;55941;50.800;4.342;2023-01-31T01:00:51;43.78;;;10.27;;
34832;SDS011;55941;50.800;4.342;2023-01-31T01:03:17;46.60;;;9.73;;
34832;SDS011;55941;50.800;4.342;2023-01-31T01:05:43;52.10;;;9.60;;
34832;SDS011;55941;50.800;4.342;2023-01-31T01:08:09;40.90;;;9.30;;
34832;SDS011;55941;50.800;4.342;2023-01-31T01:10:35;49.90;;;10.00;;
34832;SDS011;55941;50.800;4.342;2023-01-31T01:13:01;39.47;;;10.07;;
34832;SDS011;55941;50.800;4.342;2023-01-31T01:15:29;43.40;;;9.90;;
34832;SDS011;55941;50.800;4.342;2023-01-31T01:17:56;41.15;;;8.93;;
34832;SDS011;55941;50.800;4.342;2023-01-31T01:20:22;37.92;;;9.13;;
34832;SDS011;55941;50.800;4.342;2023-01-31T01:22:48;42.85;;;10.30;;
34832;SDS011;55941;50.800;4.342;2023-01-31T01:25:14;47.67;;;9.90;;
34832;SDS011;55941;50.800;4.342;2023-01-31T01:27:40;49.83;;;10.38;;
34832;SDS011;55941;50.800;4.342;2023-01-31T01:30:06;43.03;;;10.43;;
34832;SDS011;55941;50.800;4.342;2023-01-31T01:32:32;39.38;;;10.25;;
34832;SDS011;55941;50.800;4.342;2023-01-31T01:34:58;40.67;;;10.57;;
34832;SDS011;55941;50.800;4.342;2023-01-31T01:37:24;39.83;;;10.35;;
34832;SDS011;55941;50.800;4.342;2023-01-31T01:39:50;50.63;;;10.35;;
34832;SDS011;55941;50.800;4.342;2023-01-31T01:42:18;35.00;;;9.63;;
34832;SDS011;55941;50.800;4.342;2023-01-31T01:44:53;54.95;;;11.07;;
34832;SDS011;55941;50.800;4.342;2023-01-31T01:52:38;57.83;;;11.57;;
34832;SDS011;55941;50.800;4.342;2023-01-31T01:57:53;47.67;;;10.73;;
34832;SDS011;55941;50.800;4.342;2023-01-31T02:00:26;50.13;;;10.60;;
34832;SDS011;55941;50.800;4.342;2023-01-31T02:02:55;46.38;;;10.20;;
34832;SDS011;55941;50.800;4.342;2023-01-31T02:05:26;40.85;;;10.75;;
34832;SDS011;55941;50.800;4.342;2023-01-31T02:07:59;53.65;;;10.45;;
34832;SDS011;55941;50.800;4.342;2023-01-31T02:10:47;39.90;;;9.48;;
34832;SDS011;55941;50.800;4.342;2023-01-31T02:13:14;45.92;;;11.13;;
34832;SDS011;55941;50.800;4.342;2023-01-31T02:15:41;48.95;;;10.70;;
34832;SDS011;55941;50.800;4.342;2023-01-31T02:18:08;45.25;;;9.85;;
34832;SDS011;55941;50.800;4.342;2023-01-31T02:26:08;49.38;;;9.30;;
34832;SDS011;55941;50.800;4.342;2023-01-31T02:29:05;50.60;;;9.98;;
34832;SDS011;55941;50.800;4.342;2023-01-31T02:34:26;46.75;;;10.05;;
34832;SDS011;55941;50.800;4.342;2023-01-31T02:52:39;45.60;;;11.07;;
34832;SDS011;55941;50.800;4.342;2023-01-31T02:55:25;48.25;;;12.35;;
34832;SDS011;55941;50.800;4.342;2023-01-31T02:58:30;46.20;;;11.95;;
34832;SDS011;55941;50.800;4.342;2023-01-31T03:00:59;42.38;;;11.02;;
34832;SDS011;55941;50.800;4.342;2023-01-31T03:03:28;48.60;;;11.00;;
34832;SDS011;55941;50.800;4.342;2023-01-31T03:08:52;48.00;;;11.40;;
34832;SDS011;55941;50.800;4.342;2023-01-31T03:11:24;42.83;;;11.02;;
34832;SDS011;55941;50.800;4.342;2023-01-31T03:16:51;48.85;;;11.15;;
34832;SDS011;55941;50.800;4.342;2023-01-31T03:19:54;45.70;;;10.30;;
34832;SDS011;55941;50.800;4.342;2023-01-31T03:22:59;43.70;;;11.18;;
34832;SDS011;55941;50.800;4.342;2023-01-31T03:25:33;50.53;;;11.20;;
34832;SDS011;55941;50.800;4.342;2023-01-31T03:28:02;43.90;;;10.10;;
34832;SDS011;55941;50.800;4.342;2023-01-31T03:33:24;45.42;;;10.38;;
34832;SDS011;55941;50.800;4.342;2023-01-31T03:36:01;35.17;;;10.13;;
34832;SDS011;55941;50.800;4.342;2023-01-31T03:38:47;46.00;;;9.48;;
34832;SDS011;55941;50.800;4.342;2023-01-31T03:46:55;43.97;;;9.77;;
34832;SDS011;55941;50.800;4.342;2023-01-31T03:49:26;42.25;;;10.77;;
34832;SDS011;55941;50.800;4.342;2023-01-31T03:51:57;41.60;;;9.52;;
34832;SDS011;55941;50.800;4.342;2023-01-31T03:54:28;37.35;;;8.07;;
34832;SDS011;55941;50.800;4.342;2023-01-31T03:57:05;47.38;;;9.55;;
34832;SDS011;55941;50.800;4.342;2023-01-31T03:59:37;38.38;;;8.85;;
34832;SDS011;55941;50.800;4.342;2023-01-31T04:02:09;43.38;;;9.18;;
34832;SDS011;55941;50.800;4.342;2023-01-31T04:04:38;42.78;;;9.05;;
34832;SDS011;55941;50.800;4.342;2023-01-31T04:07:08;31.35;;;8.40;;
34832;SDS011;55941;50.800;4.342;2023-01-31T04:09:36;46.03;;;9.63;;
34832;SDS011;55941;50.800;4.342;2023-01-31T04:12:03;34.42;;;9.32;;
34832;SDS011;55941;50.800;4.342;2023-01-31T04:14:29;33.92;;;8.35;;
34832;SDS011;55941;50.800;4.342;2023-01-31T04:16:55;44.50;;;9.63;;
34832;SDS011;55941;50.800;4.342;2023-01-31T04:19:21;38.88;;;8.55;;
34832;SDS011;55941;50.800;4.342;2023-01-31T04:21:47;44.40;;;8.93;;
34832;SDS011;55941;50.800;4.342;2023-01-31T04:24:13;39.53;;;8.75;;
34832;SDS011;55941;50.800;4.342;2023-01-31T04:26:39;44.33;;;8.88;;
34832;SDS011;55941;50.800;4.342;2023-01-31T04:29:06;31.77;;;8.27;;
34832;SDS011;55941;50.800;4.342;2023-01-31T04:31:33;45.70;;;8.95;;
34832;SDS011;55941;50.800;4.342;2023-01-31T04:33:59;41.83;;;8.65;;
34832;SDS011;55941;50.800;4.342;2023-01-31T04:36:24;33.88;;;7.95;;
34832;SDS011;55941;50.800;4.342;2023-01-31T04:38:50;39.72;;;8.45;;
34832;SDS011;55941;50.800;4.342;2023-01-31T04:41:17;34.53;;;7.88;;
34832;SDS011;55941;50.800;4.342;2023-01-31T04:43:43;33.65;;;8.50;;
34832;SDS011;55941;50.800;4.342;2023-01-31T04:46:09;46.92;;;9.45;;
34832;SDS011;55941;50.800;4.342;2023-01-31T04:48:36;39.22;;;8.57;;
34832;SDS011;55941;50.800;4.342;2023-01-31T04:51:04;41.72;;;8.45;;
34832;SDS011;55941;50.800;4.342;2023-01-31T04:53:31;36.65;;;8.52;;
34832;SDS011;55941;50.800;4.342;2023-01-31T04:55:57;42.17;;;8.48;;
34832;SDS011;55941;50.800;4.342;2023-01-31T04:58:23;37.38;;;7.93;;
34832;SDS011;55941;50.800;4.342;2023-01-31T05:00:49;34.22;;;9.13;;
34832;SDS011;55941;50.800;4.342;2023-01-31T05:03:14;33.42;;;8.25;;
34832;SDS011;55941;50.800;4.342;2023-01-31T05:05:40;39.30;;;8.23;;
34832;SDS011;55941;50.800;4.342;2023-01-31T05:08:07;44.28;;;7.95;;
34832;SDS011;55941;50.800;4.342;2023-01-31T05:10:33;43.45;;;9.07;;
34832;SDS011;55941;50.800;4.342;2023-01-31T05:13:00;44.30;;;8.85;;
34832;SDS011;55941;50.800;4.342;2023-01-31T05:15:26;48.97;;;9.00;;
34832;SDS011;55941;50.800;4.342;2023-01-31T05:17:52;33.67;;;8.73;;
34832;SDS011;55941;50.800;4.342;2023-01-31T05:20:33;54.10;;;8.00;;
34832;SDS011;55941;50.800;4.342;2023-01-31T05:23:04;38.25;;;8.68;;
34832;SDS011;55941;50.800;4.342;2023-01-31T05:25:31;33.83;;;7.80;;
34832;SDS011;55941;50.800;4.342;2023-01-31T05:27:57;38.58;;;8.65;;
34832;SDS011;55941;50.800;4.342;2023-01-31T05:30:23;39.22;;;7.57;;
34832;SDS011;55941;50.800;4.342;2023-01-31T05:32:49;41.72;;;8.25;;
34832;SDS011;55941;50.800;4.342;2023-01-31T05:35:15;38.03;;;9.00;;
34832;SDS011;55941;50.800;4.342;2023-01-31T05:37:42;52.00;;;9.60;;
34832;SDS011;55941;50.800;4.342;2023-01-31T05:40:10;44.72;;;8.73;;
34832;SDS011;55941;50.800;4.342;2023-01-31T05:42:39;51.03;;;8.93;;
34832;SDS011;55941;50.800;4.342;2023-01-31T05:45:05;45.55;;;8.52;;
34832;SDS011;55941;50.800;4.342;2023-01-31T05:47:32;47.60;;;7.85;;
34832;SDS011;55941;50.800;4.342;2023-01-31T05:49:59;47.70;;;8.57;;
34832;SDS011;55941;50.800;4.342;2023-01-31T05:52:25;38.83;;;7.90;;
34832;SDS011;55941;50.800;4.342;2023-01-31T05:54:51;42.08;;;8.18;;
34832;SDS011;55941;50.800;4.342;2023-01-31T05:57:17;54.28;;;8.65;;
34832;SDS011;55941;50.800;4.342;2023-01-31T05:59:43;46.42;;;8.02;;
34832;SDS011;55941;50.800;4.342;2023-01-31T06:02:09;49.42;;;8.73;;
34832;SDS011;55941;50.800;4.342;2023-01-31T06:04:36;46.50;;;8.65;;
34832;SDS011;55941;50.800;4.342;2023-01-31T06:07:02;41.72;;;8.77;;
34832;SDS011;55941;50.800;4.342;2023-01-31T06:09:28;43.42;;;8.38;;
34832;SDS011;55941;50.800;4.342;2023-01-31T06:11:54;37.63;;;8.23;;
34832;SDS011;55941;50.800;4.342;2023-01-31T06:14:20;48.22;;;8.52;;
34832;SDS011;55941;50.800;4.342;2023-01-31T06:16:46;48.10;;;9.50;;
34832;SDS011;55941;50.800;4.342;2023-01-31T06:19:12;43.63;;;8.98;;
34832;SDS011;55941;50.800;4.342;2023-01-31T06:21:39;38.70;;;7.68;;
34832;SDS011;55941;50.800;4.342;2023-01-31T06:24:06;30.33;;;7.63;;
34832;SDS011;55941;50.800;4.342;2023-01-31T06:26:32;35.20;;;7.88;;
34832;SDS011;55941;50.800;4.342;2023-01-31T06:28:57;43.88;;;8.52;;
34832;SDS011;55941;50.800;4.342;2023-01-31T06:31:23;36.40;;;7.65;;
34832;SDS011;55941;50.800;4.342;2023-01-31T06:33:49;50.55;;;8.38;;
34832;SDS011;55941;50.800;4.342;2023-01-31T06:36:15;37.15;;;8.68;;
34832;SDS011;55941;50.800;4.342;2023-01-31T06:38:41;25.15;;;7.85;;
34832;SDS011;55941;50.800;4.342;2023-01-31T06:41:07;45.42;;;8.27;;
34832;SDS011;55941;50.800;4.342;2023-01-31T06:43:39;49.03;;;8.88;;
34832;SDS011;55941;50.800;4.342;2023-01-31T06:46:06;50.03;;;8.45;;
34832;SDS011;55941;50.800;4.342;2023-01-31T06:48:32;52.05;;;9.00;;
34832;SDS011;55941;50.800;4.342;2023-01-31T06:50:58;36.03;;;8.15;;
34832;SDS011;55941;50.800;4.342;2023-01-31T06:53:23;33.25;;;8.10;;
34832;SDS011;55941;50.800;4.342;2023-01-31T06:55:49;36.50;;;7.85;;
34832;SDS011;55941;50.800;4.342;2023-01-31T06:58:15;26.92;;;7.13;;
34832;SDS011;55941;50.800;4.342;2023-01-31T07:00:40;51.42;;;9.50;;
34832;SDS011;55941;50.800;4.342;2023-01-31T07:03:06;40.45;;;7.47;;
34832;SDS011;55941;50.800;4.342;2023-01-31T07:05:31;37.03;;;8.40;;
34832;SDS011;55941;50.800;4.342;2023-01-31T07:07:57;36.40;;;7.32;;
34832;SDS011;55941;50.800;4.342;2023-01-31T07:10:23;44.80;;;7.88;;
34832;SDS011;55941;50.800;4.342;2023-01-31T07:12:49;50.13;;;7.47;;
34832;SDS011;55941;50.800;4.342;2023-01-31T07:15:15;39.38;;;7.60;;
34832;SDS011;55941;50.800;4.342;2023-01-31T07:17:41;41.20;;;7.78;;
34832;SDS011;55941;50.800;4.342;2023-01-31T07:20:08;41.38;;;7.72;;
34832;SDS011;55941;50.800;4.342;2023-01-31T07:22:35;47.53;;;8.32;;
34832;SDS011;55941;50.800;4.342;2023-01-31T07:25:01;44.35;;;7.90;;
34832;SDS011;55941;50.800;4.342;2023-01-31T07:27:27;42.08;;;7.93;;
34832;SDS011;55941;50.800;4.342;2023-01-31T07:29:52;43.13;;;8.18;;
34832;SDS011;55941;50.800;4.342;2023-01-31T07:32:19;40.10;;;8.02;;
34832;SDS011;55941;50.800;4.342;2023-01-31T07:34:45;39.00;;;7.85;;
34832;SDS011;55941;50.800;4.342;2023-01-31T07:37:10;40.45;;;6.88;;
34832;SDS011;55941;50.800;4.342;2023-01-31T07:39:36;44.47;;;8.40;;
34832;SDS011;55941;50.800;4.342;2023-01-31T07:42:02;46.17;;;7.65;;
34832;SDS011;55941;50.800;4.342;2023-01-31T07:44:28;44.55;;;6.80;;
34832;SDS011;55941;50.800;4.342;2023-01-31T07:46:54;41.83;;;7.22;;
34832;SDS011;55941;50.800;4.342;2023-01-31T07:49:20;39.33;;;7.60;;
34832;SDS011;55941;50.800;4.342;2023-01-31T07:51:47;37.90;;;7.50;;
34832;SDS011;55941;50.800;4.342;2023-01-31T07:54:13;52.08;;;7.78;;
34832;SDS011;55941;50.800;4.342;2023-01-31T07:56:39;34.35;;;7.57;;
34832;SDS011;55941;50.800;4.342;2023-01-31T07:59:05;43.15;;;8.02;;
34832;SDS011;55941;50.800;4.342;2023-01-31T08:01:31;39.28;;;6.30;;
34832;SDS011;55941;50.800;4.342;2023-01-31T08:04:17;38.47;;;7.40;;
34832;SDS011;55941;50.800;4.342;2023-01-31T08:06:43;33.63;;;6.82;;
34832;SDS011;55941;50.800;4.342;2023-01-31T08:09:09;41.50;;;7.15;;
34832;SDS011;55941;50.800;4.342;2023-01-31T08:11:35;37.53;;;7.80;;
34832;SDS011;55941;50.800;4.342;2023-01-31T08:14:00;41.42;;;7.85;;
34832;SDS011;55941;50.800;4.342;2023-01-31T08:16:27;37.88;;;7.38;;
34832;SDS011;55941;50.800;4.342;2023-01-31T08:18:55;43.78;;;7.82;;
34832;SDS011;55941;50.800;4.342;2023-01-31T08:21:22;37.72;;;6.93;;
34832;SDS011;55941;50.800;4.342;2023-01-31T08:23:48;35.20;;;6.60;;
34832;SDS011;55941;50.800;4.342;2023-01-31T08:26:15;40.83;;;7.55;;
34832;SDS011;55941;50.800;4.342;2023-01-31T08:28:43;35.70;;;7.35;;
34832;SDS011;55941;50.800;4.342;2023-01-31T08:31:11;38.28;;;7.00;;
34832;SDS011;55941;50.800;4.342;2023-01-31T08:33:38;35.50;;;7.55;;
34832;SDS011;55941;50.800;4.342;2023-01-31T08:38:39;39.55;;;7.43;;
34832;SDS011;55941;50.800;4.342;2023-01-31T08:41:06;38.78;;;8.07;;
34832;SDS011;55941;50.800;4.342;2023-01-31T08:43:32;35.65;;;6.82;;
34832;SDS011;55941;50.800;4.342;2023-01-31T08:45:58;50.83;;;8.02;;
34832;SDS011;55941;50.800;4.342;2023-01-31T08:48:24;51.53;;;7.00;;
34832;SDS011;55941;50.800;4.342;2023-01-31T08:50:49;38.65;;;6.70;;
34832;SDS011;55941;50.800;4.342;2023-01-31T08:53:16;34.65;;;6.43;;
34832;SDS011;55941;50.800;4.342;2023-01-31T08:55:42;38.47;;;6.97;;
34832;SDS011;55941;50.800;4.342;2023-01-31T08:58:08;47.05;;;7.93;;
34832;SDS011;55941;50.800;4.342;2023-01-31T09:00:34;47.58;;;8.80;;
34832;SDS011;55941;50.800;4.342;2023-01-31T09:03:00;28.50;;;5.75;;
34832;SDS011;55941;50.800;4.342;2023-01-31T09:05:26;43.08;;;7.40;;
34832;SDS011;55941;50.800;4.342;2023-01-31T09:07:56;30.60;;;6.15;;
34832;SDS011;55941;50.800;4.342;2023-01-31T09:10:23;30.83;;;7.20;;
34832;SDS011;55941;50.800;4.342;2023-01-31T09:12:49;44.28;;;6.85;;
34832;SDS011;55941;50.800;4.342;2023-01-31T09:15:14;50.05;;;6.70;;
34832;SDS011;55941;50.800;4.342;2023-01-31T09:17:41;44.92;;;6.55;;
34832;SDS011;55941;50.800;4.342;2023-01-31T09:20:08;39.50;;;6.85;;
34832;SDS011;55941;50.800;4.342;2023-01-31T09:22:35;36.83;;;6.75;;
34832;SDS011;55941;50.800;4.342;2023-01-31T09:25:01;36.13;;;6.78;;
34832;SDS011;55941;50.800;4.342;2023-01-31T09:27:28;46.08;;;7.13;;
34832;SDS011;55941;50.800;4.342;2023-01-31T09:29:54;32.42;;;6.25;;
34832;SDS011;55941;50.800;4.342;2023-01-31T09:32:20;44.05;;;7.05;;
34832;SDS011;55941;50.800;4.342;2023-01-31T09:34:46;30.17;;;5.95;;
34832;SDS011;55941;50.800;4.342;2023-01-31T09:37:13;31.35;;;6.53;;
34832;SDS011;55941;50.800;4.342;2023-01-31T09:39:40;56.55;;;7.00;;
34832;SDS011;55941;50.800;4.342;2023-01-31T09:42:16;44.90;;;7.00;;
34832;SDS011;55941;50.800;4.342;2023-01-31T09:45:11;28.92;;;6.20;;
34832;SDS011;55941;50.800;4.342;2023-01-31T09:47:43;24.50;;;5.68;;
34832;SDS011;55941;50.800;4.342;2023-01-31T09:50:20;37.33;;;6.70;;
34832;SDS011;55941;50.800;4.342;2023-01-31T09:52:58;39.90;;;6.22;;
34832;SDS011;55941;50.800;4.342;2023-01-31T09:55:27;34.33;;;6.38;;
34832;SDS011;55941;50.800;4.342;2023-01-31T09:58:15;33.08;;;5.75;;
34832;SDS011;55941;50.800;4.342;2023-01-31T10:00:47;43.25;;;6.63;;
34832;SDS011;55941;50.800;4.342;2023-01-31T10:06:12;37.35;;;6.88;;
34832;SDS011;55941;50.800;4.342;2023-01-31T10:09:03;32.83;;;5.85;;
34832;SDS011;55941;50.800;4.342;2023-01-31T10:14:47;36.45;;;6.47;;
34832;SDS011;55941;50.800;4.342;2023-01-31T10:17:38;39.10;;;6.93;;
34832;SDS011;55941;50.800;4.342;2023-01-31T10:23:15;40.08;;;6.38;;
34832;SDS011;55941;50.800;4.342;2023-01-31T10:25:47;32.72;;;6.35;;
34832;SDS011;55941;50.800;4.342;2023-01-31T10:28:32;34.95;;;7.10;;
34832;SDS011;55941;50.800;4.342;2023-01-31T10:34:09;34.50;;;6.85;;
34832;SDS011;55941;50.800;4.342;2023-01-31T10:40:03;32.60;;;6.65;;
34832;SDS011;55941;50.800;4.342;2023-01-31T10:42:38;35.78;;;6.72;;
34832;SDS011;55941;50.800;4.342;2023-01-31T10:45:17;36.55;;;6.30;;
34832;SDS011;55941;50.800;4.342;2023-01-31T10:47:58;31.08;;;6.68;;
34832;SDS011;55941;50.800;4.342;2023-01-31T10:56:10;33.08;;;5.80;;
34832;SDS011;55941;50.800;4.342;2023-01-31T10:58:44;28.23;;;6.88;;
34832;SDS011;55941;50.800;4.342;2023-01-31T11:01:10;35.63;;;6.53;;
34832;SDS011;55941;50.800;4.342;2023-01-31T11:03:44;40.58;;;6.40;;
34832;SDS011;55941;50.800;4.342;2023-01-31T11:06:21;41.33;;;6.63;;
34832;SDS011;55941;50.800;4.342;2023-01-31T11:08:55;38.22;;;6.57;;
34832;SDS011;55941;50.800;4.342;2023-01-31T11:11:24;41.25;;;6.78;;
34832;SDS011;55941;50.800;4.342;2023-01-31T11:14:02;33.70;;;7.65;;
34832;SDS011;55941;50.800;4.342;2023-01-31T11:16:33;28.95;;;6.53;;
34832;SDS011;55941;50.800;4.342;2023-01-31T11:21:53;33.50;;;6.63;;
34832;SDS011;55941;50.800;4.342;2023-01-31T11:24:20;39.08;;;7.97;;
34832;SDS011;55941;50.800;4.342;2023-01-31T11:26:52;33.65;;;6.63;;
34832;SDS011;55941;50.800;4.342;2023-01-31T11:29:27;37.78;;;7.70;;
34832;SDS011;55941;50.800;4.342;2023-01-31T11:31:56;35.45;;;8.00;;
34832;SDS011;55941;50.800;4.342;2023-01-31T11:36:51;36.17;;;7.65;;
34832;SDS011;55941;50.800;4.342;2023-01-31T11:39:21;40.50;;;7.25;;
34832;SDS011;55941;50.800;4.342;2023-01-31T11:41:51;35.38;;;6.85;;
34832;SDS011;55941;50.800;4.342;2023-01-31T11:44:20;32.10;;;6.97;;
34832;SDS011;55941;50.800;4.342;2023-01-31T11:46:56;25.17;;;7.07;;
34832;SDS011;55941;50.800;4.342;2023-01-31T11:49:29;34.63;;;7.40;;
34832;SDS011;55941;50.800;4.342;2023-01-31T11:52:01;37.55;;;6.85;;
34832;SDS011;55941;50.800;4.342;2023-01-31T11:54:40;38.45;;;6.82;;
34832;SDS011;55941;50.800;4.342;2023-01-31T11:57:33;28.45;;;5.55;;
34832;SDS011;55941;50.800;4.342;2023-01-31T12:00:03;41.78;;;8.40;;
34832;SDS011;55941;50.800;4.342;2023-01-31T12:02:41;33.10;;;6.65;;
34832;SDS011;55941;50.800;4.342;2023-01-31T12:05:17;35.97;;;7.50;;
34832;SDS011;55941;50.800;4.342;2023-01-31T12:07:45;36.25;;;6.90;;
34832;SDS011;55941;50.800;4.342;2023-01-31T12:13:16;41.08;;;7.32;;
34832;SDS011;55941;50.800;4.342;2023-01-31T12:24:29;41.03;;;7.40;;
34832;SDS011;55941;50.800;4.342;2023-01-31T12:34:53;41.80;;;7.38;;
34832;SDS011;55941;50.800;4.342;2023-01-31T12:52:12;37.53;;;8.18;;
34832;SDS011;55941;50.800;4.342;2023-01-31T12:55:02;35.40;;;8.52;;
34832;SDS011;55941;50.800;4.342;2023-01-31T13:00:31;35.47;;;8.25;;
34832;SDS011;55941;50.800;4.342;2023-01-31T13:06:02;43.17;;;9.38;;
34832;SDS011;55941;50.800;4.342;2023-01-31T13:08:34;46.80;;;9.48;;
34832;SDS011;55941;50.800;4.342;2023-01-31T13:11:14;60.63;;;10.35;;
34832;SDS011;55941;50.800;4.342;2023-01-31T13:13:46;48.38;;;8.88;;
34832;SDS011;55941;50.800;4.342;2023-01-31T13:16:25;45.78;;;9.18;;
34832;SDS011;55941;50.800;4.342;2023-01-31T13:19:01;37.25;;;8.27;;
34832;SDS011;55941;50.800;4.342;2023-01-31T13:21:32;45.22;;;9.90;;
34832;SDS011;55941;50.800;4.342;2023-01-31T13:24:12;51.65;;;9.73;;
34832;SDS011;55941;50.800;4.342;2023-01-31T13:26:43;45.65;;;10.38;;
34832;SDS011;55941;50.800;4.342;2023-01-31T13:29:34;45.42;;;10.25;;
34832;SDS011;55941;50.800;4.342;2023-01-31T13:32:09;51.30;;;10.38;;
34832;SDS011;55941;50.800;4.342;2023-01-31T13:34:44;61.65;;;14.93;;
34832;SDS011;55941;50.800;4.342;2023-01-31T13:37:16;54.13;;;11.35;;
34832;SDS011;55941;50.800;4.342;2023-01-31T13:39:58;52.22;;;10.95;;
34832;SDS011;55941;50.800;4.342;2023-01-31T13:42:27;43.92;;;12.10;;
34832;SDS011;55941;50.800;4.342;2023-01-31T13:44:54;46.03;;;11.82;;
34832;SDS011;55941;50.800;4.342;2023-01-31T13:47:39;55.33;;;12.30;;
34832;SDS011;55941;50.800;4.342;2023-01-31T13:53:15;41.25;;;11.32;;
34832;SDS011;55941;50.800;4.342;2023-01-31T13:55:55;52.53;;;12.07;;
34832;SDS011;55941;50.800;4.342;2023-01-31T13:58:22;41.13;;;11.32;;
34832;SDS011;55941;50.800;4.342;2023-01-31T14:00:57;41.88;;;11.98;;
34832;SDS011;55941;50.800;4.342;2023-01-31T14:03:28;43.28;;;10.65;;
34832;SDS011;55941;50.800;4.342;2023-01-31T14:08:29;50.67;;;12.05;;
34832;SDS011;55941;50.800;4.342;2023-01-31T14:16:53;43.72;;;11.55;;
34832;SDS011;55941;50.800;4.342;2023-01-31T14:18:59;39.08;;;11.48;;
34832;SDS011;55941;50.800;4.342;2023-01-31T14:23:58;39.85;;;10.63;;
34832;SDS011;55941;50.800;4.342;2023-01-31T14:29:07;66.57;;;19.57;;
34832;SDS011;55941;50.800;4.342;2023-01-31T14:31:33;50.65;;;13.93;;
34832;SDS011;55941;50.800;4.342;2023-01-31T14:33:59;61.15;;;15.00;;
34832;SDS011;55941;50.800;4.342;2023-01-31T14:42:27;35.35;;;10.02;;
34832;SDS011;55941;50.800;4.342;2023-01-31T14:56:30;29.55;;;9.52;;
34832;SDS011;55941;50.800;4.342;2023-01-31T14:59:00;33.95;;;9.38;;
34832;SDS011;55941;50.800;4.342;2023-01-31T15:01:31;32.20;;;9.07;;
34832;SDS011;55941;50.800;4.342;2023-01-31T15:04:00;31.27;;;8.60;;
34832;SDS011;55941;50.800;4.342;2023-01-31T15:06:34;33.40;;;9.05;;
34832;SDS011;55941;50.800;4.342;2023-01-31T15:11:47;28.83;;;8.75;;
34832;SDS011;55941;50.800;4.342;2023-01-31T15:17:08;24.50;;;8.68;;
34832;SDS011;55941;50.800;4.342;2023-01-31T15:19:54;30.63;;;9.73;;
34832;SDS011;55941;50.800;4.342;2023-01-31T15:22:27;27.75;;;8.15;;
34832;SDS011;55941;50.800;4.342;2023-01-31T15:24:55;25.08;;;8.68;;
34832;SDS011;55941;50.800;4.342;2023-01-31T15:27:29;35.92;;;8.15;;
34832;SDS011;55941;50.800;4.342;2023-01-31T15:43:28;27.63;;;7.72;;
34832;SDS011;55941;50.800;4.342;2023-01-31T15:45:54;20.55;;;7.07;;
34832;SDS011;55941;50.800;4.342;2023-01-31T15:48:20;31.02;;;7.30;;
34832;SDS011;55941;50.800;4.342;2023-01-31T15:50:54;25.73;;;7.13;;
34832;SDS011;55941;50.800;4.342;2023-01-31T15:53:24;34.85;;;8.27;;
34832;SDS011;55941;50.800;4.342;2023-01-31T15:55:53;22.35;;;6.57;;
34832;SDS011;55941;50.800;4.342;2023-01-31T15:58:22;26.52;;;6.60;;
34832;SDS011;55941;50.800;4.342;2023-01-31T16:00:59;29.42;;;6.95;;
34832;SDS011;55941;50.800;4.342;2023-01-31T16:03:27;22.98;;;6.63;;
34832;SDS011;55941;50.800;4.342;2023-01-31T16:05:56;21.05;;;6.55;;
34832;SDS011;55941;50.800;4.342;2023-01-31T16:08:28;23.67;;;6.30;;
34832;SDS011;55941;50.800;4.342;2023-01-31T16:10:58;24.20;;;5.88;;
34832;SDS011;55941;50.800;4.342;2023-01-31T16:13:26;22.58;;;5.35;;
34832;SDS011;55941;50.800;4.342;2023-01-31T16:15:52;19.77;;;5.53;;
34832;SDS011;55941;50.800;4.342;2023-01-31T16:18:18;24.20;;;6.07;;
34832;SDS011;55941;50.800;4.342;2023-01-31T16:20:49;22.20;;;5.03;;
34832;SDS011;55941;50.800;4.342;2023-01-31T16:26:14;17.85;;;5.28;;
34832;SDS011;55941;50.800;4.342;2023-01-31T16:28:49;16.42;;;4.63;;
34832;SDS011;55941;50.800;4.342;2023-01-31T16:31:21;19.70;;;5.18;;
34832;SDS011;55941;50.800;4.342;2023-01-31T16:33:51;21.13;;;4.82;;
34832;SDS011;55941;50.800;4.342;2023-01-31T16:36:30;17.17;;;4.22;;
34832;SDS011;55941;50.800;4.342;2023-01-31T16:39:02;14.38;;;4.43;;
34832;SDS011;55941;50.800;4.342;2023-01-31T16:41:44;19.52;;;4.57;;
34832;SDS011;55941;50.800;4.342;2023-01-31T16:44:19;17.50;;;4.65;;
34832;SDS011;55941;50.800;4.342;2023-01-31T16:46:48;20.58;;;6.22;;
34832;SDS011;55941;50.800;4.342;2023-01-31T16:49:35;19.30;;;5.93;;
34832;SDS011;55941;50.800;4.342;2023-01-31T16:54:44;20.42;;;5.25;;
34832;SDS011;55941;50.800;4.342;2023-01-31T16:59:58;18.42;;;5.25;;
34832;SDS011;55941;50.800;4.342;2023-01-31T17:05:24;18.65;;;4.80;;
34832;SDS011;55941;50.800;4.342;2023-01-31T17:07:53;11.93;;;4.50;;
34832;SDS011;55941;50.800;4.342;2023-01-31T17:10:25;23.38;;;5.35;;
34832;SDS011;55941;50.800;4.342;2023-01-31T17:12:55;16.55;;;4.72;;
34832;SDS011;55941;50.800;4.342;2023-01-31T17:15:22;11.90;;;4.70;;
34832;SDS011;55941;50.800;4.342;2023-01-31T17:17:48;18.83;;;4.93;;
34832;SDS011;55941;50.800;4.342;2023-01-31T17:20:15;19.60;;;4.97;;
34832;SDS011;55941;50.800;4.342;2023-01-31T17:22:42;19.02;;;4.90;;
34832;SDS011;55941;50.800;4.342;2023-01-31T17:25:23;16.40;;;5.22;;
34832;SDS011;55941;50.800;4.342;2023-01-31T17:30:18;12.45;;;5.13;;
34832;SDS011;55941;50.800;4.342;2023-01-31T17:32:46;24.67;;;5.78;;
34832;SDS011;55941;50.800;4.342;2023-01-31T17:35:16;16.90;;;5.25;;
34832;SDS011;55941;50.800;4.342;2023-01-31T17:37:54;19.48;;;6.00;;
34832;SDS011;55941;50.800;4.342;2023-01-31T17:40:21;17.92;;;6.30;;
34832;SDS011;55941;50.800;4.342;2023-01-31T17:42:52;19.80;;;5.93;;
34832;SDS011;55941;50.800;4.342;2023-01-31T17:45:22;16.92;;;5.68;;
34832;SDS011;55941;50.800;4.342;2023-01-31T17:47:48;20.15;;;6.03;;
34832;SDS011;55941;50.800;4.342;2023-01-31T17:50:32;17.30;;;5.85;;